Terminal Aerodrome Forecast
Issued by NWS Louisville, KY

Home | Current Version | Previous Version | Text Only | Print | Product List | Glossary On
Versions: 1 2 3 4 5 6 7 8 9 10 11 12 13 14 15
679
FTUS43 KLMK 142325
TAFSDF
TAF
KSDF 142325Z 1500/1606 36004KT P6SM FEW040 SCT200
     FM151300 27007KT P6SM FEW060 SCT100
     FM151700 27012G20KT P6SM FEW060 SCT100=

USA.gov is the U.S. government's official web portal to all federal, state and local government web resources and services.